createdAt,value
2018-01-13T00:02:21.693Z,97855.92
2018-01-13T00:04:47.720Z,97861.96
2018-01-13T00:07:13.784Z,97861.70
2018-01-13T00:09:39.772Z,97862.82
2018-01-13T00:12:05.804Z,97860.54
2018-01-13T00:14:31.816Z,97858.64
2018-01-13T00:16:57.836Z,97855.56
2018-01-13T00:19:23.863Z,97849.75
2018-01-13T00:21:49.844Z,97854.27
2018-01-13T00:24:15.869Z,97847.49
2018-01-13T00:26:41.997Z,97847.83
2018-01-13T00:29:07.988Z,97842.40
2018-01-13T00:31:34.020Z,97844.87
2018-01-13T00:34:00.500Z,97846.28
2018-01-13T00:36:26.592Z,97845.95
2018-01-13T00:38:52.584Z,97842.55
2018-01-13T00:41:18.584Z,97841.31
2018-01-13T00:43:44.640Z,97843.90
2018-01-13T00:46:10.641Z,97849.19
2018-01-13T00:48:36.672Z,97845.27
2018-01-13T00:51:02.712Z,97849.73
2018-01-13T00:53:28.743Z,97841.03
2018-01-13T00:55:54.780Z,97840.34
2018-01-13T00:58:20.812Z,97838.98
2018-01-13T01:00:46.809Z,97846.45
2018-01-13T01:03:12.808Z,97834.16
2018-01-13T01:05:38.893Z,97832.21
2018-01-13T01:08:04.904Z,97836.52
2018-01-13T01:10:30.876Z,97845.36
2018-01-13T01:12:56.933Z,97841.17
2018-01-13T01:15:22.924Z,97843.14
2018-01-13T01:17:48.924Z,97848.70
2018-01-13T01:20:14.969Z,97845.63
2018-01-13T01:22:40.937Z,97839.20
2018-01-13T01:25:06.934Z,97834.03
2018-01-13T01:27:32.931Z,97836.36
2018-01-13T01:29:58.948Z,97831.59
2018-01-13T01:32:24.941Z,97826.61
2018-01-13T01:34:50.972Z,97830.23
2018-01-13T01:37:17.013Z,97833.58
2018-01-13T01:39:42.999Z,97834.38
2018-01-13T01:42:09.089Z,97840.82
2018-01-13T01:44:35.116Z,97830.89
2018-01-13T01:47:01.103Z,97836.62
2018-01-13T01:49:27.176Z,97837.73
2018-01-13T01:51:53.205Z,97841.44
2018-01-13T01:54:19.248Z,97838.55
2018-01-13T01:56:45.308Z,97841.71
2018-01-13T01:59:11.328Z,97845.34
2018-01-13T02:01:37.324Z,97844.56
2018-01-13T02:04:03.380Z,97841.75
2018-01-13T02:06:29.681Z,97840.89
2018-01-13T02:08:55.680Z,97843.99
2018-01-13T02:11:21.699Z,97840.02
2018-01-13T02:13:47.748Z,97843.99
2018-01-13T02:16:13.808Z,97841.66
2018-01-13T02:18:39.845Z,97839.46
2018-01-13T02:21:05.853Z,97835.55
2018-01-13T02:23:31.847Z,97827.62
2018-01-13T02:25:57.901Z,97833.16
2018-01-13T02:28:23.953Z,97832.77
2018-01-13T02:30:49.996Z,97831.35
2018-01-13T02:33:16.004Z,97833.48
2018-01-13T02:35:42.048Z,97833.92
2018-01-13T02:38:08.112Z,97829.78
2018-01-13T02:40:34.133Z,97828.27
2018-01-13T02:43:00.185Z,97824.25
2018-01-13T02:45:26.189Z,97823.58
2018-01-13T02:47:52.193Z,97822.16
2018-01-13T02:50:18.188Z,97819.83
2018-01-13T02:52:44.194Z,97820.92
2018-01-13T02:55:10.237Z,97821.95
2018-01-13T02:57:36.264Z,97819.19
2018-01-13T03:00:03.219Z,97818.16
2018-01-13T03:02:29.243Z,97820.28
2018-01-13T03:04:55.273Z,97810.30
2018-01-13T03:07:21.396Z,97808.80
2018-01-13T03:09:47.805Z,97812.67
2018-01-13T03:12:13.869Z,97810.50
2018-01-13T03:14:39.912Z,97805.77
2018-01-13T03:17:05.933Z,97803.11
2018-01-13T03:19:31.915Z,97804.58
2018-01-13T03:21:57.945Z,97803.27
2018-01-13T03:24:24.027Z,97802.59
2018-01-13T03:26:50.176Z,97796.28
2018-01-13T03:29:16.236Z,97795.17
2018-01-13T03:31:42.264Z,97784.47
2018-01-13T03:34:08.318Z,97788.15
2018-01-13T03:36:34.339Z,97793.64
2018-01-13T03:39:00.337Z,97783.44
2018-01-13T03:41:26.633Z,97785.06
2018-01-13T03:43:52.675Z,97781.98
2018-01-13T03:46:18.693Z,97782.06
2018-01-13T03:48:44.727Z,97773.34
2018-01-13T03:51:10.732Z,97773.69
2018-01-13T03:53:36.787Z,97778.58
2018-01-13T03:56:02.896Z,97780.52
2018-01-13T03:58:28.907Z,97772.39
2018-01-13T04:00:54.956Z,97777.24
2018-01-13T04:03:21.016Z,97778.31
2018-01-13T04:05:47.028Z,97775.74
2018-01-13T04:08:13.056Z,97772.77
2018-01-13T04:10:39.073Z,97775.06
2018-01-13T04:13:05.148Z,97778.50
2018-01-13T04:15:31.148Z,97779.24
2018-01-13T04:17:57.152Z,97778.90
2018-01-13T04:20:23.176Z,97777.75
2018-01-13T04:22:49.280Z,97774.66
2018-01-13T04:25:15.301Z,97769.53
2018-01-13T04:27:41.543Z,97773.00
2018-01-13T04:30:07.556Z,97773.67
2018-01-13T04:32:33.604Z,97775.09
2018-01-13T04:34:59.620Z,97772.09
2018-01-13T04:37:25.576Z,97768.22
2018-01-13T04:39:51.727Z,97769.17
2018-01-13T04:42:17.732Z,97774.02
2018-01-13T04:44:43.739Z,97767.38
2018-01-13T04:47:10.176Z,97765.00
2018-01-13T04:49:36.211Z,97765.95
2018-01-13T04:52:02.246Z,97766.94
2018-01-13T04:54:28.548Z,97771.64
2018-01-13T04:56:54.632Z,97768.81
2018-01-13T04:59:20.744Z,97768.05
2018-01-13T05:01:46.771Z,97770.34
2018-01-13T05:04:12.768Z,97764.33
2018-01-13T05:06:38.784Z,97765.28
2018-01-13T05:09:04.908Z,97766.10
2018-01-13T05:11:30.944Z,97765.98
2018-01-13T05:13:56.924Z,97761.42
2018-01-13T05:16:22.964Z,97763.79
2018-01-13T05:18:49.055Z,97759.91
2018-01-13T05:21:15.079Z,97767.66
2018-01-13T05:23:41.124Z,97767.30
2018-01-13T05:26:07.147Z,97762.57
2018-01-13T05:28:33.157Z,97764.48
2018-01-13T05:30:59.137Z,97767.58
2018-01-13T05:33:25.125Z,97770.34
2018-01-13T05:35:51.072Z,97774.30
2018-01-13T05:38:17.105Z,97768.78
2018-01-13T05:40:43.160Z,97774.33
2018-01-13T05:43:09.572Z,97767.35
2018-01-13T05:45:35.649Z,97773.60
2018-01-13T05:48:01.742Z,97775.25
2018-01-13T05:50:27.854Z,97774.25
2018-01-13T05:52:53.887Z,97778.02
2018-01-13T05:55:19.931Z,97780.00
2018-01-13T05:57:45.913Z,97783.87
2018-01-13T06:00:11.963Z,97780.03
2018-01-13T06:02:37.997Z,97776.66
2018-01-13T06:05:04.116Z,97771.89
2018-01-13T06:07:30.151Z,97775.87
2018-01-13T06:09:56.171Z,97776.53
2018-01-13T06:12:22.176Z,97763.75
2018-01-13T06:14:48.312Z,97767.13
2018-01-13T06:17:14.286Z,97762.54
2018-01-13T06:19:40.296Z,97759.72
2018-01-13T06:22:06.330Z,97759.95
2018-01-13T06:24:32.359Z,97765.30
2018-01-13T06:26:58.386Z,97763.23
2018-01-13T06:29:24.396Z,97764.12
2018-01-13T06:31:50.381Z,97763.88
2018-01-13T06:34:16.436Z,97766.06
2018-01-13T06:36:42.444Z,97763.30
2018-01-13T06:39:08.869Z,97763.78
2018-01-13T06:41:34.889Z,97762.45
2018-01-13T06:44:00.927Z,97771.56
2018-01-13T06:46:26.975Z,97759.05
2018-01-13T06:48:52.992Z,97759.63
2018-01-13T06:51:19.007Z,97769.98
2018-01-13T06:53:45.084Z,97770.52
2018-01-13T06:56:11.135Z,97757.68
2018-01-13T06:58:37.168Z,97766.03
2018-01-13T07:01:03.151Z,97769.00
2018-01-13T07:03:29.188Z,97763.97
2018-01-13T07:05:55.215Z,97769.16
2018-01-13T07:08:21.232Z,97765.52
2018-01-13T07:10:47.232Z,97769.03
2018-01-13T07:13:13.290Z,97766.06
2018-01-13T07:15:39.289Z,97764.75
2018-01-13T07:18:05.316Z,97766.94
2018-01-13T07:20:31.372Z,97760.41
2018-01-13T07:22:57.480Z,97764.84
2018-01-13T07:25:23.528Z,97766.36
2018-01-13T07:27:49.544Z,97770.64
2018-01-13T07:30:15.549Z,97769.31
2018-01-13T07:32:41.577Z,97769.55
2018-01-13T07:35:07.604Z,97762.05
2018-01-13T07:37:33.680Z,97767.00
2018-01-13T07:39:59.693Z,97769.44
2018-01-13T07:42:25.652Z,97771.47
2018-01-13T07:44:51.636Z,97773.08
2018-01-13T07:47:17.702Z,97772.44
2018-01-13T07:49:43.692Z,97774.66
2018-01-13T07:52:09.715Z,97773.47
2018-01-13T07:54:35.778Z,97770.68
2018-01-13T07:57:01.816Z,97776.20
2018-01-13T07:59:27.841Z,97767.09
2018-01-13T08:01:53.860Z,97774.38
2018-01-13T08:04:19.889Z,97777.14
2018-01-13T08:06:46.297Z,97774.26
2018-01-13T08:09:12.319Z,97769.86
2018-01-13T08:11:38.389Z,97775.72
2018-01-13T08:14:04.443Z,97773.50
2018-01-13T08:16:30.527Z,97774.84
2018-01-13T08:18:56.540Z,97773.92
2018-01-13T08:21:22.604Z,97776.14
2018-01-13T08:23:48.663Z,97774.56
2018-01-13T08:26:14.649Z,97774.20
2018-01-13T08:28:40.686Z,97773.47
2018-01-13T08:31:06.736Z,97778.27
2018-01-13T08:33:32.802Z,97780.09
2018-01-13T08:35:58.857Z,97774.44
2018-01-13T08:38:24.876Z,97771.22
2018-01-13T08:40:51.036Z,97775.56
2018-01-13T08:43:17.036Z,97776.08
2018-01-13T08:45:43.076Z,97777.78
2018-01-13T08:48:09.161Z,97779.15
2018-01-13T08:50:35.147Z,97778.15
2018-01-13T08:53:01.971Z,97772.62
2018-01-13T08:55:28.045Z,97772.77
2018-01-13T08:57:54.128Z,97773.32
2018-01-13T09:00:20.239Z,97775.90
2018-01-13T09:02:46.312Z,97778.48
2018-01-13T09:05:12.380Z,97778.30
2018-01-13T09:07:38.423Z,97782.79
2018-01-13T09:10:04.483Z,97782.19
2018-01-13T09:12:30.566Z,97781.88
2018-01-13T09:14:56.556Z,97777.39
2018-01-13T09:17:22.577Z,97773.26
2018-01-13T09:19:48.608Z,97779.73
2018-01-13T09:22:14.637Z,97776.27
2018-01-13T09:24:40.680Z,97779.33
2018-01-13T09:27:06.749Z,97776.72
2018-01-13T09:29:32.692Z,97778.91
2018-01-13T09:31:58.676Z,97783.37
2018-01-13T09:34:24.697Z,97782.73
2018-01-13T09:36:50.755Z,97785.83
2018-01-13T09:39:16.788Z,97784.55
2018-01-13T09:41:42.837Z,97787.25
2018-01-13T09:44:09.245Z,97785.55
2018-01-13T09:46:35.275Z,97789.98
2018-01-13T09:49:01.365Z,97790.11
2018-01-13T09:51:27.400Z,97787.65
2018-01-13T09:53:53.369Z,97780.33
2018-01-13T09:56:19.436Z,97787.89
2018-01-13T09:58:45.440Z,97786.44
2018-01-13T10:01:11.439Z,97783.03
2018-01-13T10:03:37.471Z,97780.03
2018-01-13T10:06:03.541Z,97783.60
2018-01-13T10:08:29.493Z,97785.20
2018-01-13T10:10:55.496Z,97783.97
2018-01-13T10:13:21.526Z,97777.38
2018-01-13T10:15:47.536Z,97785.45
2018-01-13T10:18:13.572Z,97781.48
2018-01-13T10:20:39.613Z,97783.19
2018-01-13T10:23:05.608Z,97778.56
2018-01-13T10:25:31.616Z,97772.00
2018-01-13T10:27:57.588Z,97767.85
2018-01-13T10:30:23.668Z,97764.96
2018-01-13T10:32:49.743Z,97765.51
2018-01-13T10:35:15.763Z,97771.64
2018-01-13T10:37:41.756Z,97762.78
2018-01-13T10:40:07.848Z,97766.03
2018-01-13T10:42:33.857Z,97768.80
2018-01-13T10:44:59.877Z,97761.72
2018-01-13T10:47:25.974Z,97760.84
2018-01-13T10:49:52.068Z,97766.63
2018-01-13T10:52:18.069Z,97757.86
2018-01-13T10:54:44.111Z,97752.61
2018-01-13T10:57:10.180Z,97748.42
2018-01-13T10:59:36.216Z,97748.73
2018-01-13T11:02:02.265Z,97736.34
2018-01-13T11:04:28.282Z,97741.56
2018-01-13T11:06:54.357Z,97736.70
2018-01-13T11:09:20.398Z,97730.69
2018-01-13T11:11:46.389Z,97724.69
2018-01-13T11:14:12.404Z,97726.41
2018-01-13T11:16:38.428Z,97721.04
2018-01-13T11:19:04.492Z,97722.49
2018-01-13T11:21:30.502Z,97718.27
2018-01-13T11:23:56.530Z,97722.49
2018-01-13T11:26:22.584Z,97722.31
2018-01-13T11:28:48.596Z,97721.03
2018-01-13T11:31:14.671Z,97715.05
2018-01-13T11:33:40.697Z,97715.00
2018-01-13T11:36:06.776Z,97711.20
2018-01-13T11:38:32.751Z,97705.58
2018-01-13T11:40:58.748Z,97709.53
2018-01-13T11:43:24.808Z,97706.28
2018-01-13T11:45:50.816Z,97698.96
2018-01-13T11:48:16.845Z,97693.00
2018-01-13T11:50:42.901Z,97686.38
2018-01-13T11:53:08.925Z,97688.59
2018-01-13T11:55:35.093Z,97683.64
2018-01-13T11:58:01.238Z,97685.81
2018-01-13T12:00:27.402Z,97689.86
2018-01-13T12:02:53.484Z,97677.51
2018-01-13T12:05:19.545Z,97675.22
2018-01-13T12:07:45.538Z,97679.71
2018-01-13T12:10:16.128Z,97674.31
2018-01-13T12:12:42.173Z,97668.87
2018-01-13T12:15:08.231Z,97666.36
2018-01-13T12:17:34.356Z,97665.86
2018-01-13T12:20:00.321Z,97666.80
2018-01-13T12:22:26.891Z,97668.11
2018-01-13T12:24:52.937Z,97660.78
2018-01-13T12:27:19.003Z,97664.91
2018-01-13T12:29:45.149Z,97656.95
2018-01-13T12:32:11.280Z,97658.34
2018-01-13T12:34:37.465Z,97664.34
2018-01-13T12:37:03.531Z,97664.31
2018-01-13T12:39:29.588Z,97634.56
2018-01-13T12:41:55.628Z,97662.42
2018-01-13T12:44:21.661Z,97666.86
2018-01-13T12:46:47.720Z,97668.59
2018-01-13T12:49:13.765Z,97660.48
2018-01-13T12:51:39.825Z,97659.95
2018-01-13T12:54:05.878Z,97659.91
2018-01-13T12:56:32.065Z,97654.22
2018-01-13T12:58:58.177Z,97654.86
2018-01-13T13:01:24.211Z,97654.73
2018-01-13T13:03:50.260Z,97653.00
2018-01-13T13:06:16.305Z,97645.20
2018-01-13T13:08:42.993Z,97643.81
2018-01-13T13:11:09.008Z,97643.72
2018-01-13T13:13:35.052Z,97644.09
2018-01-13T13:16:01.428Z,97634.73
2018-01-13T13:18:27.875Z,97639.53
2018-01-13T13:20:53.892Z,97635.72
2018-01-13T13:23:19.957Z,97633.13
2018-01-13T13:25:45.956Z,97633.74
2018-01-13T13:28:12.076Z,97639.14
2018-01-13T13:30:38.097Z,97632.50
2018-01-13T13:33:04.099Z,97636.69
2018-01-13T13:35:30.147Z,97637.16
2018-01-13T13:37:56.126Z,97632.59
2018-01-13T13:40:22.168Z,97635.11
2018-01-13T13:42:48.224Z,97633.30
2018-01-13T13:45:14.300Z,97634.27
2018-01-13T13:47:40.297Z,97630.97
2018-01-13T13:50:06.359Z,97633.48
2018-01-13T13:52:32.365Z,97637.89
2018-01-13T13:54:58.394Z,97630.73
2018-01-13T13:57:24.538Z,97640.44
2018-01-13T13:59:50.632Z,97640.56
2018-01-13T14:02:16.624Z,97636.02
2018-01-13T14:04:42.709Z,97636.69
2018-01-13T14:07:08.767Z,97630.55
2018-01-13T14:09:34.877Z,97641.11
2018-01-13T14:12:00.974Z,97635.92
2018-01-13T14:14:27.046Z,97633.73
2018-01-13T14:16:53.190Z,97633.09
2018-01-13T14:19:19.505Z,97639.83
2018-01-13T14:21:45.476Z,97634.34
2018-01-13T14:24:11.542Z,97636.59
2018-01-13T14:26:37.593Z,97632.31
2018-01-13T14:29:03.624Z,97628.43
2018-01-13T14:31:30.065Z,97630.31
2018-01-13T14:33:56.138Z,97623.48
2018-01-13T14:36:22.224Z,97623.49
2018-01-13T14:38:48.294Z,97626.89
2018-01-13T14:41:14.433Z,97621.16
2018-01-13T14:43:40.489Z,97631.86
2018-01-13T14:46:06.552Z,97620.24
2018-01-13T14:48:32.581Z,97626.67
2018-01-13T14:50:58.696Z,97626.12
2018-01-13T14:53:24.704Z,97626.67
2018-01-13T14:55:50.752Z,97633.89
2018-01-13T14:58:16.761Z,97633.53
2018-01-13T15:00:43.360Z,97636.35
2018-01-13T15:03:09.343Z,97635.02
2018-01-13T15:05:35.364Z,97635.16
2018-01-13T15:08:01.428Z,97634.92
2018-01-13T15:10:27.432Z,97634.79
2018-01-13T15:12:53.474Z,97631.39
2018-01-13T15:15:27.264Z,97631.73
2018-01-13T15:17:53.336Z,97631.47
2018-01-13T15:20:19.316Z,97635.38
2018-01-13T15:22:45.374Z,97628.59
2018-01-13T15:25:11.388Z,97634.05
2018-01-13T15:27:37.548Z,97631.49
2018-01-13T15:30:03.748Z,97629.95
2018-01-13T15:32:29.753Z,97635.61
2018-01-13T15:34:55.844Z,97639.97
2018-01-13T15:37:21.860Z,97641.54
2018-01-13T15:39:47.888Z,97634.47
2018-01-13T15:42:14.059Z,97637.84
2018-01-13T15:44:40.126Z,97640.36
2018-01-13T15:47:06.180Z,97646.14
2018-01-13T15:49:32.220Z,97649.11
2018-01-13T15:52:04.364Z,97643.22
2018-01-13T15:54:30.642Z,97647.13
2018-01-13T15:56:56.804Z,97650.09
2018-01-13T15:59:23.530Z,97646.14
2018-01-13T16:01:49.568Z,97651.00
2018-01-13T16:04:15.624Z,97651.83
2018-01-13T16:06:41.702Z,97650.73
2018-01-13T16:09:07.772Z,97651.48
2018-01-13T16:11:33.862Z,97652.15
2018-01-13T16:13:59.884Z,97656.91
2018-01-13T16:16:25.972Z,97655.94
2018-01-13T16:18:52.058Z,97653.92
2018-01-13T16:21:18.094Z,97654.88
2018-01-13T16:23:44.144Z,97657.33
2018-01-13T16:26:10.249Z,97658.39
2018-01-13T16:28:36.341Z,97657.92
2018-01-13T16:31:16.364Z,97657.53
2018-01-13T16:33:42.410Z,97662.65
2018-01-13T16:36:08.433Z,97661.28
2018-01-13T16:38:34.579Z,97667.00
2018-01-13T16:41:00.626Z,97665.16
2018-01-13T16:43:26.684Z,97661.16
2018-01-13T16:45:52.770Z,97659.34
2018-01-13T16:48:18.776Z,97667.67
2018-01-13T16:50:44.874Z,97665.08
2018-01-13T16:53:10.885Z,97657.86
2018-01-13T16:55:36.910Z,97664.64
2018-01-13T16:58:02.957Z,97658.28
2018-01-13T17:00:29.002Z,97661.96
2018-01-13T17:02:55.014Z,97661.36
2018-01-13T17:05:21.014Z,97661.24
2018-01-13T17:07:47.106Z,97658.05
2018-01-13T17:10:13.167Z,97660.02
2018-01-13T17:12:39.229Z,97662.75
2018-01-13T17:15:05.304Z,97663.06
2018-01-13T17:17:31.309Z,97663.11
2018-01-13T17:19:57.389Z,97662.63
2018-01-13T17:22:23.557Z,97658.05
2018-01-13T17:24:49.656Z,97659.27
2018-01-13T17:27:15.670Z,97658.05
2018-01-13T17:29:41.705Z,97663.60
2018-01-13T17:32:07.737Z,97662.90
2018-01-13T17:34:33.804Z,97668.45
2018-01-13T17:36:59.897Z,97659.58
2018-01-13T17:39:25.952Z,97666.44
2018-01-13T17:41:52.016Z,97667.63
2018-01-13T17:44:18.172Z,97666.83
2018-01-13T17:46:44.190Z,97667.60
2018-01-13T17:49:10.221Z,97671.64
2018-01-13T17:51:36.262Z,97667.99
2018-01-13T17:54:02.326Z,97664.72
2018-01-13T17:56:28.440Z,97673.12
2018-01-13T17:58:54.973Z,97655.61
2018-01-13T18:01:21.052Z,97661.51
2018-01-13T18:03:47.064Z,97655.80
2018-01-13T18:06:13.088Z,97659.83
2018-01-13T18:08:39.157Z,97662.84
2018-01-13T18:11:05.181Z,97659.20
2018-01-13T18:13:31.259Z,97659.84
2018-01-13T18:15:57.245Z,97650.22
2018-01-13T18:18:23.257Z,97658.03
2018-01-13T18:20:49.249Z,97655.20
2018-01-13T18:23:15.327Z,97646.17
2018-01-13T18:25:41.344Z,97654.20
2018-01-13T18:28:08.349Z,97655.66
2018-01-13T18:30:34.404Z,97667.02
2018-01-13T18:33:00.442Z,97661.20
2018-01-13T18:35:26.491Z,97657.47
2018-01-13T18:37:52.546Z,97652.55
2018-01-13T18:40:18.577Z,97652.50
2018-01-13T18:42:44.612Z,97653.67
2018-01-13T18:45:10.739Z,97648.59
2018-01-13T18:47:36.764Z,97648.88
2018-01-13T18:50:03.080Z,97650.28
2018-01-13T18:52:29.178Z,97648.81
2018-01-13T18:54:55.265Z,97652.94
2018-01-13T18:57:21.328Z,97644.35
2018-01-13T18:59:47.361Z,97644.30
2018-01-13T19:02:13.396Z,97641.38
2018-01-13T19:04:39.432Z,97644.06
2018-01-13T19:07:05.468Z,97646.77
2018-01-13T19:09:31.468Z,97645.94
2018-01-13T19:11:57.516Z,97645.66
2018-01-13T19:14:23.587Z,97646.39
2018-01-13T19:16:49.627Z,97648.82
2018-01-13T19:19:15.609Z,97646.77
2018-01-13T19:21:41.672Z,97640.78
2018-01-13T19:24:07.649Z,97631.23
2018-01-13T19:26:33.636Z,97641.30
2018-01-13T19:28:59.568Z,97636.26
2018-01-13T19:31:25.656Z,97629.91
2018-01-13T19:33:51.705Z,97633.53
2018-01-13T19:36:17.797Z,97638.73
2018-01-13T19:38:43.768Z,97631.27
2018-01-13T19:41:09.749Z,97632.69
2018-01-13T19:43:35.868Z,97632.45
2018-01-13T19:46:01.853Z,97629.23
2018-01-13T19:48:27.892Z,97626.23
2018-01-13T19:50:53.909Z,97624.16
2018-01-13T19:53:19.940Z,97625.80
2018-01-13T19:55:45.988Z,97627.59
2018-01-13T19:58:12.049Z,97634.72
2018-01-13T20:00:38.124Z,97636.09
2018-01-13T20:03:04.153Z,97632.23
2018-01-13T20:05:30.166Z,97629.38
2018-01-13T20:07:56.180Z,97628.64
2018-01-13T20:10:22.222Z,97627.96
2018-01-13T20:12:48.233Z,97631.61
2018-01-13T20:15:14.321Z,97630.39
2018-01-13T20:17:40.306Z,97635.31
2018-01-13T20:20:06.284Z,97635.92
2018-01-13T20:22:32.286Z,97627.82
2018-01-13T20:24:58.290Z,97625.92
2018-01-13T20:27:24.268Z,97619.37
2018-01-13T20:29:50.297Z,97611.11
2018-01-13T20:32:16.374Z,97610.80
2018-01-13T20:34:42.365Z,97610.83
2018-01-13T20:37:08.433Z,97610.56
2018-01-13T20:39:34.420Z,97613.28
2018-01-13T20:42:00.457Z,97612.25
2018-01-13T20:44:26.511Z,97617.85
2018-01-13T20:46:52.501Z,97606.83
2018-01-13T20:49:18.414Z,97612.98
2018-01-13T20:51:44.496Z,97606.45
2018-01-13T20:54:10.512Z,97610.77
2018-01-13T20:56:36.469Z,97601.69
2018-01-13T20:59:02.517Z,97611.07
2018-01-13T21:01:28.564Z,97606.94
2018-01-13T21:03:54.619Z,97608.77
2018-01-13T21:06:20.646Z,97613.09
2018-01-13T21:08:46.682Z,97604.59
2018-01-13T21:11:12.812Z,97602.38
2018-01-13T21:13:38.790Z,97604.91
2018-01-13T21:16:04.804Z,97614.30
2018-01-13T21:18:30.852Z,97601.67
2018-01-13T21:20:56.885Z,97603.66
2018-01-13T21:23:22.901Z,97609.55
2018-01-13T21:25:48.880Z,97602.02
2018-01-13T21:28:14.959Z,97604.62
2018-01-13T21:30:40.950Z,97601.59
2018-01-13T21:33:06.976Z,97601.36
2018-01-13T21:35:32.988Z,97602.15
2018-01-13T21:37:59.012Z,97604.19
2018-01-13T21:40:25.061Z,97604.70
2018-01-13T21:42:51.086Z,97599.70
2018-01-13T21:45:17.076Z,97606.44
2018-01-13T21:47:43.077Z,97598.23
2018-01-13T21:50:09.176Z,97597.39
2018-01-13T21:52:35.214Z,97603.61
2018-01-13T21:55:01.180Z,97605.75
2018-01-13T21:57:27.200Z,97601.06
2018-01-13T21:59:53.177Z,97604.73
2018-01-13T22:02:19.200Z,97598.52
2018-01-13T22:04:45.216Z,97591.13
2018-01-13T22:07:11.228Z,97600.69
2018-01-13T22:09:37.256Z,97597.22
2018-01-13T22:12:03.313Z,97595.41
2018-01-13T22:14:29.313Z,97592.52
2018-01-13T22:16:55.322Z,97591.73
2018-01-13T22:19:21.341Z,97589.13
2018-01-13T22:21:47.336Z,97585.31
2018-01-13T22:24:13.440Z,97583.70
2018-01-13T22:26:39.400Z,97581.50
2018-01-13T22:29:05.429Z,97582.93
2018-01-13T22:31:31.461Z,97582.09
2018-01-13T22:33:57.484Z,97579.64
2018-01-13T22:36:23.546Z,97577.00
2018-01-13T22:38:49.548Z,97574.80
2018-01-13T22:41:15.595Z,97568.30
2018-01-13T22:43:41.640Z,97567.21
2018-01-13T22:46:07.674Z,97566.27
2018-01-13T22:48:33.696Z,97568.18
2018-01-13T22:50:59.705Z,97571.80
2018-01-13T22:53:25.715Z,97566.55
2018-01-13T22:55:51.736Z,97566.32
2018-01-13T22:58:17.757Z,97564.73
2018-01-13T23:00:50.033Z,97567.80
2018-01-13T23:03:16.055Z,97562.48
2018-01-13T23:05:42.040Z,97559.31
2018-01-13T23:08:08.090Z,97561.45
2018-01-13T23:10:34.143Z,97564.18
2018-01-13T23:13:00.181Z,97554.79
2018-01-13T23:15:26.184Z,97548.42
2018-01-13T23:17:52.206Z,97548.92
2018-01-13T23:20:18.334Z,97542.27
2018-01-13T23:22:44.369Z,97542.33
2018-01-13T23:25:10.480Z,97541.91
2018-01-13T23:27:36.526Z,97539.70
2018-01-13T23:30:02.668Z,97535.58
2018-01-13T23:32:28.713Z,97525.71
2018-01-13T23:34:54.752Z,97533.27
2018-01-13T23:37:20.786Z,97534.86
2018-01-13T23:39:46.830Z,97535.36
2018-01-13T23:42:12.869Z,97527.36
2018-01-13T23:44:38.839Z,97528.30
2018-01-13T23:47:04.906Z,97530.74
2018-01-13T23:49:30.920Z,97528.07
2018-01-13T23:51:57.012Z,97519.83
2018-01-13T23:54:23.041Z,97522.86
2018-01-13T23:56:49.015Z,97532.13
2018-01-13T23:59:15.117Z,97528.02
